createdAt,value
2022-12-25T00:04:54.796Z,76.40
2022-12-25T00:10:26.128Z,76.01
2022-12-25T00:15:57.505Z,75.93
2022-12-25T00:21:28.919Z,76.01
2022-12-25T00:27:00.116Z,76.19
2022-12-25T00:32:31.440Z,76.22
2022-12-25T00:38:02.485Z,76.03
2022-12-25T00:43:33.618Z,76.26
2022-12-25T00:49:05.043Z,76.42
2022-12-25T00:54:37.372Z,76.27
2022-12-25T01:00:09.769Z,76.19
2022-12-25T01:05:41.204Z,76.33
2022-12-25T01:11:12.711Z,76.19
2022-12-25T01:16:44.194Z,76.07
2022-12-25T01:22:16.593Z,76.17
2022-12-25T01:27:47.765Z,76.34
2022-12-25T01:33:19.173Z,76.44
2022-12-25T01:38:51.406Z,76.52
2022-12-25T01:44:38.106Z,76.58
2022-12-25T01:50:09.302Z,76.80
2022-12-25T01:55:41.137Z,76.75
2022-12-25T02:01:12.576Z,76.78
2022-12-25T02:06:44.014Z,76.70
2022-12-25T02:12:24.942Z,76.86
2022-12-25T02:18:19.152Z,76.88
2022-12-25T02:24:17.492Z,76.71
2022-12-25T02:29:55.868Z,76.59
2022-12-25T02:35:31.363Z,76.86
2022-12-25T02:41:09.209Z,76.83
2022-12-25T02:46:58.801Z,76.53
2022-12-25T02:52:48.471Z,76.77
2022-12-25T02:58:40.813Z,76.78
2022-12-25T03:04:34.671Z,76.92
2022-12-25T03:10:37.437Z,76.67
2022-12-25T03:16:27.420Z,76.58
2022-12-25T03:22:17.748Z,76.29
2022-12-25T03:27:51.373Z,76.70
2022-12-25T03:34:10.550Z,76.82
2022-12-25T03:40:38.918Z,76.56
2022-12-25T03:46:32.724Z,76.48
2022-12-25T03:52:25.555Z,76.31
2022-12-25T03:58:15.764Z,76.37
2022-12-25T04:04:05.839Z,76.17
2022-12-25T04:09:55.799Z,76.29
2022-12-25T04:15:46.730Z,76.13
2022-12-25T04:21:36.468Z,76.32
2022-12-25T04:27:26.731Z,76.00
2022-12-25T04:33:19.699Z,76.47
2022-12-25T04:38:50.986Z,76.15
2022-12-25T04:44:22.163Z,76.06
2022-12-25T04:49:53.364Z,76.30
2022-12-25T04:55:24.410Z,76.16
2022-12-25T05:00:55.431Z,75.95
2022-12-25T05:06:26.740Z,76.36
2022-12-25T05:11:58.320Z,76.29
2022-12-25T05:17:29.840Z,76.49
2022-12-25T05:23:00.891Z,76.32
2022-12-25T05:28:32.256Z,76.62
2022-12-25T05:34:03.799Z,76.46
2022-12-25T05:39:36.123Z,76.18
2022-12-25T05:45:07.712Z,76.29
2022-12-25T05:50:39.272Z,76.18
2022-12-25T05:56:11.059Z,76.04
2022-12-25T06:01:42.563Z,76.14
2022-12-25T06:07:13.661Z,76.46
2022-12-25T06:12:44.989Z,76.30
2022-12-25T06:18:16.365Z,76.37
2022-12-25T06:23:48.209Z,76.29
2022-12-25T06:29:19.764Z,76.03
2022-12-25T06:34:51.171Z,76.06
2022-12-25T06:40:22.144Z,76.30
2022-12-25T06:45:53.613Z,75.88
2022-12-25T06:51:27.056Z,75.99
2022-12-25T06:56:58.499Z,76.05
2022-12-25T07:02:29.987Z,76.17
2022-12-25T07:08:01.888Z,76.05
2022-12-25T07:13:33.173Z,75.82
2022-12-25T07:19:04.372Z,76.01
2022-12-25T07:24:35.631Z,75.76
2022-12-25T07:30:07.676Z,76.04
2022-12-25T07:35:38.991Z,75.87
2022-12-25T07:41:11.895Z,75.95
2022-12-25T07:46:43.429Z,76.34
2022-12-25T07:52:14.843Z,76.29
2022-12-25T07:57:46.292Z,76.27
2022-12-25T08:03:19.065Z,76.13
2022-12-25T08:08:50.486Z,76.18
2022-12-25T08:14:21.528Z,76.33
2022-12-25T08:19:52.445Z,76.23
2022-12-25T08:25:23.803Z,76.37
2022-12-25T08:30:55.385Z,76.14
2022-12-25T08:36:27.397Z,76.86
2022-12-25T08:41:59.067Z,76.70
2022-12-25T08:47:30.410Z,76.42
2022-12-25T08:53:01.906Z,76.46
2022-12-25T08:58:33.510Z,76.76
2022-12-25T09:04:05.050Z,76.80
2022-12-25T09:09:36.115Z,77.16
2022-12-25T09:15:07.571Z,77.31
2022-12-25T09:20:39.119Z,77.10
2022-12-25T09:26:16.009Z,77.18
2022-12-25T09:31:47.399Z,77.58
2022-12-25T09:37:18.347Z,77.74
2022-12-25T09:42:49.849Z,77.48
2022-12-25T09:48:20.967Z,77.27
2022-12-25T09:53:59.658Z,77.31
2022-12-25T09:59:30.795Z,77.34
2022-12-25T10:05:17.716Z,77.42
2022-12-25T10:11:15.264Z,77.52
2022-12-25T10:17:10.491Z,77.75
2022-12-25T10:22:44.962Z,77.99
2022-12-25T10:28:30.115Z,77.64
2022-12-25T10:34:01.756Z,77.84
2022-12-25T10:39:32.876Z,77.94
2022-12-25T10:45:08.171Z,77.88
2022-12-25T10:50:43.377Z,78.10
2022-12-25T10:56:20.363Z,78.47
2022-12-25T11:01:55.238Z,78.14
2022-12-25T11:07:27.371Z,78.37
2022-12-25T11:12:59.856Z,78.40
2022-12-25T11:18:44.479Z,78.61
2022-12-25T11:24:20.021Z,78.98
2022-12-25T11:30:03.406Z,79.97
2022-12-25T11:35:47.154Z,80.31
2022-12-25T11:41:20.978Z,79.84
2022-12-25T11:46:52.382Z,79.65
2022-12-25T11:52:26.585Z,79.71
2022-12-25T11:58:00.573Z,80.06
2022-12-25T12:03:36.754Z,80.72
2022-12-25T12:09:23.189Z,80.67
2022-12-25T12:14:58.181Z,80.74
2022-12-25T12:20:34.810Z,80.58
2022-12-25T12:26:06.642Z,80.67
2022-12-25T12:31:44.039Z,80.80
2022-12-25T12:37:24.966Z,80.61
2022-12-25T12:42:57.030Z,80.66
2022-12-25T12:48:29.654Z,80.50
2022-12-25T12:54:18.314Z,80.47
2022-12-25T12:59:49.674Z,80.59
2022-12-25T13:05:34.222Z,81.15
2022-12-25T13:11:15.472Z,81.63
2022-12-25T13:16:49.055Z,81.46
2022-12-25T13:22:33.060Z,81.23
2022-12-25T13:28:05.128Z,81.09
2022-12-25T13:33:37.526Z,80.80
2022-12-25T13:39:09.968Z,80.80
2022-12-25T13:44:47.218Z,80.75
2022-12-25T13:50:21.214Z,80.08
2022-12-25T13:55:53.553Z,79.93
2022-12-25T14:01:24.756Z,79.62
2022-12-25T14:06:56.083Z,79.93
2022-12-25T14:12:29.694Z,79.21
2022-12-25T14:18:01.223Z,79.52
2022-12-25T14:23:52.517Z,79.19
2022-12-25T14:29:28.210Z,79.14
2022-12-25T14:35:03.694Z,79.43
2022-12-25T14:40:37.724Z,79.67
2022-12-25T14:46:09.504Z,79.56
2022-12-25T14:51:40.717Z,79.77
2022-12-25T14:57:18.647Z,79.59
2022-12-25T15:02:51.975Z,79.75
2022-12-25T15:08:24.404Z,79.49
2022-12-25T15:13:55.937Z,79.68
2022-12-25T15:19:37.038Z,79.88
2022-12-25T15:25:14.411Z,79.32
2022-12-25T15:30:46.389Z,79.20
2022-12-25T15:36:18.020Z,79.17
2022-12-25T15:42:08.403Z,79.22
2022-12-25T15:47:40.087Z,78.96
2022-12-25T15:53:11.364Z,78.42
2022-12-25T15:58:42.583Z,79.01
2022-12-25T16:04:13.810Z,78.61
2022-12-25T16:09:45.100Z,78.67
2022-12-25T16:15:16.472Z,78.42
2022-12-25T16:20:47.862Z,78.41
2022-12-25T16:26:19.450Z,78.11
2022-12-25T16:31:50.771Z,77.84
2022-12-25T16:37:21.883Z,77.46
2022-12-25T16:42:55.015Z,77.25
2022-12-25T16:48:26.029Z,77.47
2022-12-25T16:53:57.268Z,77.61
2022-12-25T16:59:29.444Z,77.22
2022-12-25T17:05:01.215Z,77.28
2022-12-25T17:10:32.678Z,77.54
2022-12-25T17:16:25.342Z,77.20
2022-12-25T17:21:56.750Z,77.28
2022-12-25T17:27:27.938Z,77.11
2022-12-25T17:32:59.026Z,76.77
2022-12-25T17:38:31.753Z,77.15
2022-12-25T17:44:03.075Z,77.07
2022-12-25T17:49:34.399Z,76.89
2022-12-25T17:55:06.740Z,77.36
2022-12-25T18:00:37.978Z,77.59
2022-12-25T18:06:13.595Z,77.18
2022-12-25T18:11:44.934Z,77.03
2022-12-25T18:17:16.213Z,77.16
2022-12-25T18:22:47.619Z,77.51
2022-12-25T18:28:19.243Z,77.25
2022-12-25T18:33:51.691Z,77.21
2022-12-25T18:39:22.979Z,77.24
2022-12-25T18:44:54.145Z,77.03
2022-12-25T18:50:25.833Z,77.02
2022-12-25T18:56:06.720Z,77.45
2022-12-25T19:01:38.206Z,77.08
2022-12-25T19:07:10.491Z,77.01
2022-12-25T19:12:41.560Z,76.88
2022-12-25T19:18:12.842Z,76.67
2022-12-25T19:23:44.772Z,76.79
2022-12-25T19:29:16.122Z,76.87
2022-12-25T19:34:47.429Z,76.55
2022-12-25T19:40:18.823Z,76.96
2022-12-25T19:45:50.203Z,76.63
2022-12-25T19:51:27.246Z,76.52
2022-12-25T19:56:58.477Z,76.56
2022-12-25T20:02:30.011Z,76.88
2022-12-25T20:08:04.096Z,76.66
2022-12-25T20:13:35.778Z,76.71
2022-12-25T20:19:07.991Z,77.08
2022-12-25T20:24:39.634Z,76.47
2022-12-25T20:30:11.253Z,76.56
2022-12-25T20:35:46.502Z,76.27
2022-12-25T20:41:27.923Z,76.81
2022-12-25T20:47:01.347Z,76.95
2022-12-25T20:52:32.437Z,76.49
2022-12-25T20:58:04.417Z,76.25
2022-12-25T21:03:35.827Z,76.63
2022-12-25T21:09:06.976Z,76.60
2022-12-25T21:14:40.444Z,76.28
2022-12-25T21:20:11.766Z,76.46
2022-12-25T21:25:43.334Z,76.55
2022-12-25T21:31:17.279Z,76.25
2022-12-25T21:36:49.248Z,76.66
2022-12-25T21:42:20.362Z,76.59
2022-12-25T21:48:02.430Z,76.68
2022-12-25T21:53:34.661Z,76.59
2022-12-25T21:59:07.495Z,76.79
2022-12-25T22:04:39.291Z,76.76
2022-12-25T22:10:10.619Z,77.03
2022-12-25T22:16:00.863Z,76.52
2022-12-25T22:21:32.145Z,76.62
2022-12-25T22:27:03.941Z,77.11
2022-12-25T22:32:35.011Z,76.84
2022-12-25T22:38:06.364Z,76.45
2022-12-25T22:44:15.408Z,77.18
2022-12-25T22:49:28.508Z,77.12
2022-12-25T22:54:59.766Z,76.96
2022-12-25T23:00:30.805Z,77.42
2022-12-25T23:06:02.104Z,77.23
2022-12-25T23:11:33.894Z,77.42
2022-12-25T23:17:32.936Z,77.92
2022-12-25T23:23:22.774Z,78.04
2022-12-25T23:29:12.495Z,77.84
2022-12-25T23:34:45.368Z,77.54
2022-12-25T23:40:17.660Z,77.65
2022-12-25T23:45:48.797Z,77.22
2022-12-25T23:51:19.942Z,77.65
2022-12-25T23:56:53.080Z,77.56
